createdAt,value
2019-05-01T00:01:54.324Z,92.30
2019-05-01T00:04:42.161Z,92.40
2019-05-01T00:07:20.749Z,92.40
2019-05-01T00:09:48.953Z,92.40
2019-05-01T00:12:17.156Z,92.30
2019-05-01T00:14:45.364Z,92.30
2019-05-01T00:17:13.577Z,92.60
2019-05-01T00:19:41.808Z,93.00
2019-05-01T00:22:10.038Z,92.80
2019-05-01T00:24:38.231Z,92.60
2019-05-01T00:27:06.440Z,92.60
2019-05-01T00:29:34.635Z,92.60
2019-05-01T00:32:02.840Z,92.80
2019-05-01T00:34:31.052Z,92.90
2019-05-01T00:36:59.256Z,93.10
2019-05-01T00:39:27.453Z,93.30
2019-05-01T00:41:55.656Z,93.30
2019-05-01T00:44:23.858Z,93.40
2019-05-01T00:46:52.090Z,93.70
2019-05-01T00:49:20.296Z,93.60
2019-05-01T00:51:48.491Z,93.90
2019-05-01T00:54:16.705Z,93.80
2019-05-01T00:56:46.544Z,93.90
2019-05-01T00:59:32.441Z,94.00
2019-05-01T01:02:05.274Z,94.10
2019-05-01T01:04:33.472Z,93.90
2019-05-01T01:07:01.689Z,93.80
2019-05-01T01:09:29.889Z,94.00
2019-05-01T01:11:58.130Z,94.20
2019-05-01T01:14:26.327Z,94.30
2019-05-01T01:16:54.569Z,94.20
2019-05-01T01:19:22.802Z,94.10
2019-05-01T01:21:51.030Z,94.10
2019-05-01T01:24:19.262Z,94.10
2019-05-01T01:26:47.501Z,94.40
2019-05-01T01:29:15.692Z,94.30
2019-05-01T01:31:43.892Z,94.30
2019-05-01T01:34:12.096Z,94.30
2019-05-01T01:36:40.301Z,94.50
2019-05-01T01:39:08.508Z,94.40
2019-05-01T01:41:36.716Z,94.20
2019-05-01T01:44:06.556Z,94.10
2019-05-01T01:46:36.396Z,94.10
2019-05-01T01:49:04.607Z,94.00
2019-05-01T01:51:32.809Z,94.20
2019-05-01T01:54:01.021Z,94.10
2019-05-01T01:56:29.216Z,94.00
2019-05-01T01:58:57.428Z,94.10
2019-05-01T02:01:33.204Z,94.10
2019-05-01T02:04:17.947Z,94.30
2019-05-01T02:06:46.712Z,94.40
2019-05-01T02:09:14.942Z,94.20
2019-05-01T02:11:43.172Z,94.30
2019-05-01T02:14:11.376Z,94.20
2019-05-01T02:16:39.572Z,94.30
2019-05-01T02:19:07.786Z,94.40
2019-05-01T02:21:36.018Z,94.60
2019-05-01T02:24:04.222Z,94.70
2019-05-01T02:26:34.066Z,94.60
2019-05-01T02:29:09.642Z,94.70
2019-05-01T02:31:45.374Z,94.70
2019-05-01T02:34:13.585Z,94.80
2019-05-01T02:36:41.777Z,94.90
2019-05-01T02:39:10.082Z,94.80
2019-05-01T02:41:41.723Z,94.90
2019-05-01T02:44:15.045Z,94.80
2019-05-01T02:46:43.254Z,94.60
2019-05-01T02:49:22.990Z,94.70
2019-05-01T02:51:51.226Z,94.70
2019-05-01T02:54:19.424Z,94.80
2019-05-01T02:56:51.939Z,94.40
2019-05-01T02:59:20.137Z,94.60
2019-05-01T03:01:48.421Z,94.70
2019-05-01T03:04:16.652Z,94.70
2019-05-01T03:06:45.055Z,94.90
2019-05-01T03:09:13.248Z,94.90
2019-05-01T03:11:41.490Z,94.90
2019-05-01T03:14:13.033Z,95.10
2019-05-01T03:16:41.252Z,95.00
2019-05-01T03:19:20.105Z,94.90
2019-05-01T03:21:52.913Z,95.20
2019-05-01T03:24:22.748Z,95.10
2019-05-01T03:26:50.995Z,95.20
2019-05-01T03:29:19.800Z,95.00
2019-05-01T03:32:14.611Z,95.00
2019-05-01T03:34:17.980Z,95.10
2019-05-01T03:36:46.179Z,94.90
2019-05-01T03:39:14.378Z,94.80
2019-05-01T03:41:42.581Z,94.70
2019-05-01T03:44:10.781Z,94.80
2019-05-01T03:46:39.019Z,95.00
2019-05-01T03:49:07.218Z,95.00
2019-05-01T03:51:35.427Z,95.00
2019-05-01T03:54:03.621Z,95.20
2019-05-01T03:56:31.824Z,95.20
2019-05-01T03:59:00.018Z,95.30
2019-05-01T04:01:32.724Z,95.20
2019-05-01T04:04:02.566Z,95.30
2019-05-01T04:06:30.769Z,95.30
2019-05-01T04:08:58.959Z,95.30
2019-05-01T04:11:27.206Z,95.30
2019-05-01T04:13:55.403Z,95.20
2019-05-01T04:16:23.610Z,95.40
2019-05-01T04:18:51.820Z,95.40
2019-05-01T04:21:21.725Z,95.40
2019-05-01T04:23:49.951Z,95.30
2019-05-01T04:26:18.160Z,95.40
2019-05-01T04:28:48.062Z,95.40
2019-05-01T04:31:17.914Z,95.60
2019-05-01T04:33:47.737Z,95.70
2019-05-01T04:36:17.574Z,95.60
2019-05-01T04:38:45.769Z,95.50
2019-05-01T04:41:13.999Z,95.50
2019-05-01T04:43:42.235Z,95.50
2019-05-01T04:46:10.461Z,95.20
2019-05-01T04:48:38.702Z,95.30
2019-05-01T04:51:06.896Z,95.40
2019-05-01T04:53:35.104Z,95.50
2019-05-01T04:56:03.409Z,95.70
2019-05-01T04:58:31.604Z,95.80
2019-05-01T05:00:59.838Z,95.80
2019-05-01T05:03:28.344Z,95.40
2019-05-01T05:05:56.536Z,95.30
2019-05-01T05:08:24.858Z,95.30
2019-05-01T05:10:54.688Z,95.00
2019-05-01T05:13:42.359Z,94.90
2019-05-01T05:16:21.085Z,94.80
2019-05-01T05:18:49.332Z,94.60
2019-05-01T05:21:17.552Z,94.30
2019-05-01T05:23:45.806Z,94.40
2019-05-01T05:26:14.008Z,94.40
2019-05-01T05:28:42.220Z,94.50
2019-05-01T05:31:10.542Z,93.90
2019-05-01T05:33:38.739Z,93.90
2019-05-01T05:36:07.014Z,93.70
2019-05-01T05:38:42.790Z,93.50
2019-05-01T05:41:10.984Z,93.20
2019-05-01T05:43:39.191Z,93.20
2019-05-01T05:46:07.395Z,93.30
2019-05-01T05:48:35.629Z,93.10
2019-05-01T05:51:05.431Z,93.10
2019-05-01T05:53:44.337Z,92.80
2019-05-01T05:56:18.740Z,92.40
2019-05-01T05:58:48.577Z,92.00
2019-05-01T06:01:21.398Z,91.80
2019-05-01T06:04:03.362Z,91.60
2019-05-01T06:06:45.015Z,91.40
2019-05-01T06:09:15.571Z,91.10
2019-05-01T06:11:48.996Z,91.30
2019-05-01T06:14:34.911Z,90.70
2019-05-01T06:17:04.744Z,90.20
2019-05-01T06:19:34.619Z,89.80
2019-05-01T06:22:11.634Z,90.10
2019-05-01T06:24:44.577Z,88.80
2019-05-01T06:27:13.722Z,90.00
2019-05-01T06:29:42.799Z,88.90
2019-05-01T06:32:11.176Z,87.80
2019-05-01T06:34:39.414Z,85.70
2019-05-01T06:37:07.678Z,87.00
2019-05-01T06:39:35.879Z,84.80
2019-05-01T06:42:09.824Z,84.20
2019-05-01T06:44:39.109Z,83.40
2019-05-01T06:47:09.122Z,82.60
2019-05-01T06:49:38.990Z,83.70
2019-05-01T06:52:07.960Z,81.40
2019-05-01T06:54:36.174Z,82.10
2019-05-01T06:57:04.446Z,79.10
2019-05-01T06:59:33.404Z,79.10
2019-05-01T07:02:01.669Z,77.70
2019-05-01T07:04:32.444Z,76.90
2019-05-01T07:07:01.974Z,77.10
2019-05-01T07:09:30.332Z,76.00
2019-05-01T07:11:58.537Z,72.90
2019-05-01T07:14:26.745Z,73.20
2019-05-01T07:16:54.955Z,71.00
2019-05-01T07:19:24.799Z,71.40
2019-05-01T07:21:53.003Z,67.50
2019-05-01T07:24:24.103Z,67.50
2019-05-01T07:26:51.148Z,66.40
2019-05-01T07:29:23.923Z,64.60
2019-05-01T07:31:52.139Z,64.20
2019-05-01T07:34:21.732Z,64.60
2019-05-01T07:36:51.767Z,64.30
2019-05-01T07:39:20.028Z,64.30
2019-05-01T07:41:48.220Z,66.40
2019-05-01T07:44:30.017Z,62.00
2019-05-01T07:47:04.404Z,61.70
2019-05-01T07:49:53.108Z,59.00
2019-05-01T07:52:22.195Z,59.20
2019-05-01T07:54:50.408Z,57.60
2019-05-01T07:57:18.629Z,58.10
2019-05-01T07:59:46.903Z,55.40
2019-05-01T08:02:15.194Z,56.50
2019-05-01T08:04:43.431Z,54.90
2019-05-01T08:07:11.644Z,53.90
2019-05-01T08:09:39.860Z,54.30
2019-05-01T08:12:08.081Z,52.50
2019-05-01T08:14:36.286Z,50.90
2019-05-01T08:17:04.530Z,51.80
2019-05-01T08:19:49.165Z,50.30
2019-05-01T08:22:19.066Z,50.30
2019-05-01T08:24:47.269Z,47.90
2019-05-01T08:27:20.321Z,47.80
2019-05-01T08:29:52.041Z,47.50
2019-05-01T08:32:27.906Z,45.00
2019-05-01T08:35:00.559Z,47.00
2019-05-01T08:37:27.710Z,42.70
2019-05-01T08:39:55.958Z,44.30
2019-05-01T08:42:24.233Z,41.60
2019-05-01T08:44:54.111Z,36.80
2019-05-01T08:47:25.934Z,37.60
2019-05-01T08:50:04.292Z,39.10
2019-05-01T08:52:32.501Z,40.70
2019-05-01T08:55:04.353Z,40.80
2019-05-01T08:57:34.465Z,40.20
2019-05-01T09:00:01.673Z,36.70
2019-05-01T09:02:30.128Z,36.30
2019-05-01T09:05:02.441Z,37.70
2019-05-01T09:07:28.271Z,37.30
2019-05-01T09:09:56.464Z,36.20
2019-05-01T09:12:24.668Z,34.10
2019-05-01T09:14:52.876Z,34.90
2019-05-01T09:17:21.149Z,34.00
2019-05-01T09:19:49.424Z,33.70
2019-05-01T09:22:17.644Z,31.50
2019-05-01T09:24:46.802Z,33.20
2019-05-01T09:27:27.545Z,32.10
2019-05-01T09:29:54.252Z,32.30
2019-05-01T09:32:22.474Z,31.80
2019-05-01T09:34:50.720Z,31.40
2019-05-01T09:37:18.980Z,32.60
2019-05-01T09:39:47.573Z,32.50
2019-05-01T09:42:22.746Z,33.10
2019-05-01T09:44:45.914Z,33.40
2019-05-01T09:47:14.184Z,32.50
2019-05-01T09:49:42.386Z,32.10
2019-05-01T09:52:18.907Z,32.30
2019-05-01T09:54:49.487Z,30.60
2019-05-01T09:57:17.795Z,28.50
2019-05-01T09:59:46.030Z,29.30
2019-05-01T10:02:14.505Z,29.20
2019-05-01T10:04:42.721Z,29.00
2019-05-01T10:07:10.911Z,29.60
2019-05-01T10:09:39.121Z,29.90
2019-05-01T10:12:11.725Z,29.30
2019-05-01T10:14:37.577Z,28.20
2019-05-01T10:17:06.060Z,28.40
2019-05-01T10:19:34.272Z,27.00
2019-05-01T10:22:03.718Z,27.20
2019-05-01T10:24:37.301Z,27.90
2019-05-01T10:27:03.652Z,28.30
2019-05-01T10:29:48.137Z,26.80
2019-05-01T10:32:21.777Z,27.80
2019-05-01T10:34:58.230Z,29.00
2019-05-01T10:37:28.290Z,26.50
2019-05-01T10:39:56.440Z,24.80
2019-05-01T10:42:24.649Z,25.20
2019-05-01T10:44:52.840Z,26.80
2019-05-01T10:47:21.089Z,25.90
2019-05-01T10:49:49.297Z,24.90
2019-05-01T10:52:17.496Z,24.40
2019-05-01T10:54:46.612Z,25.40
2019-05-01T10:57:14.893Z,24.30
2019-05-01T10:59:43.091Z,24.40
2019-05-01T11:02:12.945Z,25.10
2019-05-01T11:04:41.189Z,23.40
2019-05-01T11:07:09.414Z,23.50
2019-05-01T11:09:37.629Z,24.10
2019-05-01T11:12:05.873Z,24.10
2019-05-01T11:14:34.084Z,25.20
2019-05-01T11:17:02.276Z,24.40
2019-05-01T11:19:30.484Z,24.10
2019-05-01T11:21:58.693Z,23.90
2019-05-01T11:24:26.897Z,24.90
2019-05-01T11:26:56.739Z,24.10
2019-05-01T11:29:25.062Z,23.70
2019-05-01T11:31:57.679Z,24.50
2019-05-01T11:34:39.367Z,23.80
2019-05-01T11:37:21.036Z,24.60
2019-05-01T11:40:03.070Z,23.80
2019-05-01T11:42:31.322Z,23.50
2019-05-01T11:44:59.533Z,24.10
2019-05-01T11:47:27.800Z,24.10
2019-05-01T11:49:56.016Z,23.50
2019-05-01T11:52:24.221Z,24.00
2019-05-01T11:54:52.424Z,25.20
2019-05-01T11:57:20.763Z,24.10
2019-05-01T11:59:48.985Z,23.60
2019-05-01T12:02:17.222Z,22.60
2019-05-01T12:04:45.458Z,22.40
2019-05-01T12:07:13.682Z,23.10
2019-05-01T12:09:41.884Z,22.30
2019-05-01T12:12:11.724Z,21.60
2019-05-01T12:14:39.941Z,21.60
2019-05-01T12:17:09.772Z,22.90
2019-05-01T12:19:38.006Z,23.20
2019-05-01T12:22:06.210Z,22.20
2019-05-01T12:24:34.412Z,21.70
2019-05-01T12:27:02.628Z,22.00
2019-05-01T12:29:30.823Z,23.10
2019-05-01T12:31:59.049Z,22.40
2019-05-01T12:34:27.261Z,22.80
2019-05-01T12:37:13.231Z,22.80
2019-05-01T12:39:41.441Z,23.40
2019-05-01T12:42:09.682Z,22.80
2019-05-01T12:44:37.876Z,22.80
2019-05-01T12:47:09.381Z,24.40
2019-05-01T12:49:37.592Z,23.40
2019-05-01T12:52:10.726Z,23.20
2019-05-01T12:54:40.782Z,23.20
2019-05-01T12:57:09.103Z,22.80
2019-05-01T12:59:37.297Z,23.10
2019-05-01T13:02:05.512Z,22.50
2019-05-01T13:04:33.745Z,23.00
2019-05-01T13:07:01.965Z,24.00
2019-05-01T13:09:30.184Z,24.20
2019-05-01T13:11:58.396Z,23.40
2019-05-01T13:14:26.607Z,24.20
2019-05-01T13:16:54.849Z,23.40
2019-05-01T13:19:23.085Z,22.90
2019-05-01T13:21:51.289Z,23.20
2019-05-01T13:24:19.505Z,23.70
2019-05-01T13:26:49.397Z,24.90
2019-05-01T13:29:22.226Z,24.60
2019-05-01T13:32:08.041Z,23.30
2019-05-01T13:34:36.245Z,24.20
2019-05-01T13:37:04.452Z,22.60
2019-05-01T13:39:32.687Z,23.50
2019-05-01T13:42:00.902Z,24.00
2019-05-01T13:44:29.092Z,24.70
2019-05-01T13:46:57.301Z,24.70
2019-05-01T13:49:25.504Z,23.70
2019-05-01T13:51:53.712Z,23.90
2019-05-01T13:54:21.907Z,23.90
2019-05-01T13:56:50.121Z,24.40
2019-05-01T13:59:18.358Z,24.30
2019-05-01T14:01:46.603Z,24.00
2019-05-01T14:04:15.668Z,23.50
2019-05-01T14:06:43.877Z,24.30
2019-05-01T14:09:13.728Z,26.50
2019-05-01T14:11:41.974Z,23.80
2019-05-01T14:14:10.175Z,24.90
2019-05-01T14:16:38.415Z,25.30
2019-05-01T14:19:06.625Z,25.10
2019-05-01T14:21:37.656Z,25.20
2019-05-01T14:24:13.323Z,23.90
2019-05-01T14:26:41.537Z,24.00
2019-05-01T14:29:09.774Z,24.60
2019-05-01T14:31:37.972Z,25.70
2019-05-01T14:34:06.272Z,25.20
2019-05-01T14:36:34.501Z,26.20
2019-05-01T14:39:02.900Z,25.80
2019-05-01T14:41:31.092Z,26.90
2019-05-01T14:43:59.350Z,27.00
2019-05-01T14:46:27.611Z,26.90
2019-05-01T14:48:55.819Z,26.50
2019-05-01T14:51:24.033Z,26.20
2019-05-01T14:53:52.240Z,26.20
2019-05-01T14:56:20.451Z,26.40
2019-05-01T14:58:48.665Z,26.30
2019-05-01T15:01:16.868Z,27.90
2019-05-01T15:03:45.079Z,28.10
2019-05-01T15:06:13.268Z,27.60
2019-05-01T15:08:41.481Z,28.30
2019-05-01T15:11:09.710Z,28.40
2019-05-01T15:13:55.512Z,29.80
2019-05-01T15:16:28.264Z,29.30
2019-05-01T15:19:03.828Z,29.70
2019-05-01T15:21:32.036Z,30.40
2019-05-01T15:24:00.236Z,29.40
2019-05-01T15:26:28.443Z,29.70
2019-05-01T15:28:56.645Z,30.00
2019-05-01T15:31:24.840Z,29.90
2019-05-01T15:33:53.044Z,29.20
2019-05-01T15:36:21.255Z,28.30
2019-05-01T15:38:49.465Z,29.50
2019-05-01T15:41:35.457Z,29.40
2019-05-01T15:44:05.361Z,30.80
2019-05-01T15:46:35.228Z,29.90
2019-05-01T15:49:03.426Z,29.80
2019-05-01T15:51:31.642Z,29.80
2019-05-01T15:53:59.888Z,31.30
2019-05-01T15:56:28.104Z,31.00
2019-05-01T15:58:56.325Z,31.30
2019-05-01T16:01:24.521Z,31.80
2019-05-01T16:03:52.739Z,32.60
2019-05-01T16:06:21.101Z,32.00
2019-05-01T16:08:49.370Z,32.20
2019-05-01T16:11:19.226Z,33.00
2019-05-01T16:13:47.478Z,33.40
2019-05-01T16:16:15.671Z,34.40
2019-05-01T16:18:43.870Z,34.20
2019-05-01T16:21:12.081Z,35.00
2019-05-01T16:23:40.280Z,34.10
2019-05-01T16:26:09.810Z,33.90
2019-05-01T16:28:38.101Z,33.50
2019-05-01T16:31:06.398Z,34.30
2019-05-01T16:33:34.600Z,34.70
2019-05-01T16:36:02.846Z,34.80
2019-05-01T16:38:32.692Z,34.60
2019-05-01T16:41:05.594Z,35.00
2019-05-01T16:43:33.905Z,35.60
2019-05-01T16:46:02.188Z,35.00
2019-05-01T16:48:30.396Z,35.70
2019-05-01T16:50:58.646Z,36.30
2019-05-01T16:53:26.844Z,36.10
2019-05-01T16:55:55.052Z,35.80
2019-05-01T16:58:23.256Z,36.40
2019-05-01T17:00:59.477Z,37.50
2019-05-01T17:03:31.970Z,38.10
2019-05-01T17:06:17.976Z,36.90
2019-05-01T17:08:50.832Z,38.10
2019-05-01T17:11:20.675Z,38.50
2019-05-01T17:13:48.880Z,38.30
2019-05-01T17:16:17.094Z,39.00
2019-05-01T17:18:45.338Z,38.70
2019-05-01T17:21:13.659Z,39.00
2019-05-01T17:23:41.855Z,39.20
2019-05-01T17:26:10.057Z,39.90
2019-05-01T17:28:38.291Z,40.70
2019-05-01T17:31:06.522Z,40.50
2019-05-01T17:33:34.724Z,39.80
2019-05-01T17:36:02.928Z,40.40
2019-05-01T17:38:31.125Z,41.20
2019-05-01T17:40:59.366Z,41.20
2019-05-01T17:43:27.564Z,41.80
2019-05-01T17:45:55.768Z,42.30
2019-05-01T17:48:23.971Z,42.50
2019-05-01T17:50:55.147Z,42.90
2019-05-01T17:53:22.123Z,42.70
2019-05-01T17:55:50.373Z,43.70
2019-05-01T17:58:18.581Z,44.00
2019-05-01T18:00:54.389Z,44.00
2019-05-01T18:03:24.261Z,44.50
2019-05-01T18:06:08.964Z,44.70
2019-05-01T18:08:37.159Z,44.90
2019-05-01T18:11:09.329Z,45.20
2019-05-01T18:13:35.337Z,45.70
2019-05-01T18:16:03.530Z,47.10
2019-05-01T18:18:31.724Z,48.30
2019-05-01T18:21:00.030Z,47.90
2019-05-01T18:23:47.743Z,47.80
2019-05-01T18:26:23.111Z,46.90
2019-05-01T18:29:07.748Z,47.00
2019-05-01T18:31:36.000Z,47.40
2019-05-01T18:34:04.602Z,47.40
2019-05-01T18:36:34.533Z,47.10
2019-05-01T18:39:16.654Z,47.40
2019-05-01T18:42:00.474Z,47.90
2019-05-01T18:44:28.714Z,48.30
2019-05-01T18:46:56.936Z,48.90
2019-05-01T18:49:25.135Z,50.00
2019-05-01T18:51:53.373Z,51.40
2019-05-01T18:54:21.579Z,50.30
2019-05-01T18:56:49.784Z,50.20
2019-05-01T18:59:17.993Z,50.80
2019-05-01T19:01:48.576Z,51.80
2019-05-01T19:04:18.364Z,51.80
2019-05-01T19:06:46.091Z,51.60
2019-05-01T19:09:15.414Z,51.80
2019-05-01T19:11:43.745Z,52.90
2019-05-01T19:14:12.227Z,53.60
2019-05-01T19:16:45.156Z,54.10
2019-05-01T19:19:10.368Z,55.40
2019-05-01T19:21:41.795Z,55.90
2019-05-01T19:24:09.297Z,56.10
2019-05-01T19:26:38.299Z,55.70
2019-05-01T19:29:07.420Z,56.00
2019-05-01T19:31:35.625Z,57.80
2019-05-01T19:34:03.868Z,59.90
2019-05-01T19:36:32.108Z,59.60
2019-05-01T19:39:00.332Z,60.10
2019-05-01T19:41:28.522Z,60.60
2019-05-01T19:43:56.936Z,61.00
2019-05-01T19:46:25.140Z,61.60
2019-05-01T19:48:53.399Z,62.50
2019-05-01T19:51:24.178Z,63.50
2019-05-01T19:53:53.395Z,63.90
2019-05-01T19:56:22.745Z,64.50
2019-05-01T19:58:51.302Z,64.10
2019-05-01T20:01:19.508Z,65.10
2019-05-01T20:03:47.713Z,65.10
2019-05-01T20:06:15.975Z,64.90
2019-05-01T20:08:44.208Z,65.40
2019-05-01T20:11:12.408Z,66.00
2019-05-01T20:13:40.607Z,66.50
2019-05-01T20:16:09.828Z,67.10
2019-05-01T20:18:38.092Z,67.70
2019-05-01T20:21:06.393Z,68.20
2019-05-01T20:23:34.623Z,68.50
2019-05-01T20:26:02.824Z,68.60
2019-05-01T20:28:31.024Z,68.30
2019-05-01T20:30:59.253Z,68.60
2019-05-01T20:33:27.440Z,68.40
2019-05-01T20:35:55.656Z,68.60
2019-05-01T20:38:23.851Z,69.10
2019-05-01T20:40:52.056Z,69.70
2019-05-01T20:43:20.252Z,70.40
2019-05-01T20:45:49.489Z,70.40
2019-05-01T20:48:23.428Z,70.30
2019-05-01T20:50:48.387Z,70.50
2019-05-01T20:53:16.588Z,71.00
2019-05-01T20:55:46.463Z,70.80
2019-05-01T20:58:21.077Z,70.50
2019-05-01T21:00:53.282Z,70.10
2019-05-01T21:03:20.873Z,70.50
2019-05-01T21:06:02.892Z,71.20
2019-05-01T21:08:47.236Z,71.70
2019-05-01T21:11:17.081Z,72.70
2019-05-01T21:13:45.280Z,73.50
2019-05-01T21:16:13.485Z,73.30
2019-05-01T21:18:41.718Z,74.20
2019-05-01T21:21:09.952Z,75.00
2019-05-01T21:23:38.144Z,75.30
2019-05-01T21:26:06.381Z,75.40
2019-05-01T21:28:34.582Z,75.60
2019-05-01T21:31:03.850Z,75.40
2019-05-01T21:33:33.887Z,75.20
2019-05-01T21:36:04.933Z,75.60
2019-05-01T21:38:32.332Z,75.40
2019-05-01T21:41:02.534Z,75.90
2019-05-01T21:43:35.189Z,76.00
2019-05-01T21:46:00.385Z,76.40
2019-05-01T21:48:28.583Z,76.40
2019-05-01T21:50:58.045Z,76.30
2019-05-01T21:53:26.716Z,76.60
2019-05-01T21:55:54.911Z,77.00
2019-05-01T21:58:28.278Z,77.40
2019-05-01T22:00:55.210Z,77.70
2019-05-01T22:03:23.283Z,77.40
2019-05-01T22:05:51.510Z,77.40
2019-05-01T22:08:19.700Z,78.20
2019-05-01T22:10:52.060Z,77.60
2019-05-01T22:13:20.435Z,78.00
2019-05-01T22:15:49.443Z,78.00
2019-05-01T22:18:19.275Z,78.40
2019-05-01T22:20:57.684Z,78.80
2019-05-01T22:23:27.520Z,79.00
2019-05-01T22:25:57.372Z,78.80
2019-05-01T22:28:36.178Z,79.20
2019-05-01T22:31:21.798Z,79.20
2019-05-01T22:33:49.431Z,80.00
2019-05-01T22:36:17.641Z,80.60
2019-05-01T22:38:46.695Z,81.10
2019-05-01T22:41:14.921Z,81.20
2019-05-01T22:43:43.115Z,81.30
2019-05-01T22:46:13.006Z,81.70
2019-05-01T22:48:41.191Z,82.10
2019-05-01T22:51:13.983Z,82.00
2019-05-01T22:53:42.226Z,82.30
2019-05-01T22:56:10.458Z,82.40
2019-05-01T22:58:38.661Z,82.50
2019-05-01T23:01:07.320Z,82.80
2019-05-01T23:03:41.047Z,83.00
2019-05-01T23:06:07.892Z,82.70
2019-05-01T23:08:36.262Z,83.60
2019-05-01T23:11:04.447Z,83.00
2019-05-01T23:13:32.693Z,83.10
2019-05-01T23:16:01.053Z,83.30
2019-05-01T23:18:29.290Z,83.00
2019-05-01T23:20:57.517Z,83.00
2019-05-01T23:23:25.717Z,83.00
2019-05-01T23:25:53.917Z,82.40
2019-05-01T23:28:22.115Z,82.10
2019-05-01T23:30:50.393Z,82.40
2019-05-01T23:33:18.592Z,82.50
2019-05-01T23:35:46.827Z,82.90
2019-05-01T23:38:15.059Z,83.10
2019-05-01T23:40:46.091Z,83.20
2019-05-01T23:43:13.230Z,83.50
2019-05-01T23:45:41.425Z,83.30
2019-05-01T23:48:09.625Z,83.50
2019-05-01T23:50:37.856Z,83.90
2019-05-01T23:53:09.189Z,83.80
2019-05-01T23:55:35.959Z,83.80
2019-05-01T23:58:04.161Z,84.20
